sensor_id;sensor_type;location;lat;lon;timestamp;temperature;humidity
46085;DHT22;31823;47.032;8.310;2022-12-07T00:01:16;1.20;99.90
46085;DHT22;31823;47.032;8.310;2022-12-07T00:03:43;1.20;99.90
46085;DHT22;31823;47.032;8.310;2022-12-07T00:06:11;1.20;99.90
46085;DHT22;31823;47.032;8.310;2022-12-07T00:08:37;1.20;99.90
46085;DHT22;31823;47.032;8.310;2022-12-07T00:11:07;1.20;99.90
46085;DHT22;31823;47.032;8.310;2022-12-07T00:13:33;1.20;99.90
46085;DHT22;31823;47.032;8.310;2022-12-07T00:16:09;1.20;99.90
46085;DHT22;31823;47.032;8.310;2022-12-07T00:18:36;1.20;99.90
46085;DHT22;31823;47.032;8.310;2022-12-07T00:21:02;1.20;99.90
46085;DHT22;31823;47.032;8.310;2022-12-07T00:23:28;1.30;99.90
46085;DHT22;31823;47.032;8.310;2022-12-07T00:25:54;1.30;99.90
46085;DHT22;31823;47.032;8.310;2022-12-07T00:28:19;1.30;99.90
46085;DHT22;31823;47.032;8.310;2022-12-07T00:30:45;1.30;99.90
46085;DHT22;31823;47.032;8.310;2022-12-07T00:33:11;1.40;99.90
46085;DHT22;31823;47.032;8.310;2022-12-07T00:35:36;1.30;99.90
46085;DHT22;31823;47.032;8.310;2022-12-07T00:38:02;1.30;99.90
46085;DHT22;31823;47.032;8.310;2022-12-07T00:40:27;1.30;99.90
46085;DHT22;31823;47.032;8.310;2022-12-07T00:42:53;1.30;99.90
46085;DHT22;31823;47.032;8.310;2022-12-07T00:45:18;1.20;99.90
46085;DHT22;31823;47.032;8.310;2022-12-07T00:47:44;1.20;99.90
46085;DHT22;31823;47.032;8.310;2022-12-07T00:50:09;1.20;99.90
46085;DHT22;31823;47.032;8.310;2022-12-07T00:52:35;1.30;99.90
46085;DHT22;31823;47.032;8.310;2022-12-07T00:55:00;1.30;99.90
46085;DHT22;31823;47.032;8.310;2022-12-07T00:57:26;1.20;99.90
46085;DHT22;31823;47.032;8.310;2022-12-07T00:59:51;1.20;99.90
46085;DHT22;31823;47.032;8.310;2022-12-07T01:02:21;1.20;99.90
46085;DHT22;31823;47.032;8.310;2022-12-07T01:04:46;1.20;99.90
46085;DHT22;31823;47.032;8.310;2022-12-07T01:07:12;1.20;99.90
46085;DHT22;31823;47.032;8.310;2022-12-07T01:09:37;1.20;99.90
46085;DHT22;31823;47.032;8.310;2022-12-07T01:12:03;1.20;99.90
46085;DHT22;31823;47.032;8.310;2022-12-07T01:14:29;1.20;99.90
46085;DHT22;31823;47.032;8.310;2022-12-07T01:16:54;1.20;99.90
46085;DHT22;31823;47.032;8.310;2022-12-07T01:19:20;1.20;99.90
46085;DHT22;31823;47.032;8.310;2022-12-07T01:21:46;1.20;99.90
46085;DHT22;31823;47.032;8.310;2022-12-07T01:24:11;1.30;99.90
46085;DHT22;31823;47.032;8.310;2022-12-07T01:26:37;1.30;99.90
46085;DHT22;31823;47.032;8.310;2022-12-07T01:29:03;1.30;99.90
46085;DHT22;31823;47.032;8.310;2022-12-07T01:31:29;1.30;99.90
46085;DHT22;31823;47.032;8.310;2022-12-07T01:33:58;1.30;99.90
46085;DHT22;31823;47.032;8.310;2022-12-07T01:36:27;1.30;99.90
46085;DHT22;31823;47.032;8.310;2022-12-07T01:38:59;1.30;99.90
46085;DHT22;31823;47.032;8.310;2022-12-07T01:41:28;1.30;99.90
46085;DHT22;31823;47.032;8.310;2022-12-07T01:44:10;1.30;99.90
46085;DHT22;31823;47.032;8.310;2022-12-07T01:46:36;1.40;99.90
46085;DHT22;31823;47.032;8.310;2022-12-07T01:49:03;1.40;99.90
46085;DHT22;31823;47.032;8.310;2022-12-07T01:51:30;1.50;99.90
46085;DHT22;31823;47.032;8.310;2022-12-07T01:53:56;1.60;99.90
46085;DHT22;31823;47.032;8.310;2022-12-07T01:56:25;1.50;99.90
46085;DHT22;31823;47.032;8.310;2022-12-07T01:58:53;1.50;99.90
46085;DHT22;31823;47.032;8.310;2022-12-07T02:01:19;1.40;99.90
46085;DHT22;31823;47.032;8.310;2022-12-07T02:03:45;1.40;99.90
46085;DHT22;31823;47.032;8.310;2022-12-07T02:06:13;1.30;99.90
46085;DHT22;31823;47.032;8.310;2022-12-07T02:08:43;1.30;99.90
46085;DHT22;31823;47.032;8.310;2022-12-07T02:11:09;1.40;99.90
46085;DHT22;31823;47.032;8.310;2022-12-07T02:13:36;1.40;99.90
46085;DHT22;31823;47.032;8.310;2022-12-07T02:16:24;1.30;99.90
46085;DHT22;31823;47.032;8.310;2022-12-07T02:26:44;1.30;99.90
46085;DHT22;31823;47.032;8.310;2022-12-07T02:31:56;1.30;99.90
46085;DHT22;31823;47.032;8.310;2022-12-07T02:35:30;1.30;99.90
46085;DHT22;31823;47.032;8.310;2022-12-07T02:40:22;1.30;99.90
46085;DHT22;31823;47.032;8.310;2022-12-07T02:42:53;1.30;99.90
46085;DHT22;31823;47.032;8.310;2022-12-07T02:45:22;1.40;99.90
46085;DHT22;31823;47.032;8.310;2022-12-07T02:47:53;1.40;99.90
46085;DHT22;31823;47.032;8.310;2022-12-07T02:50:21;1.40;99.90
46085;DHT22;31823;47.032;8.310;2022-12-07T02:52:47;1.30;99.90
46085;DHT22;31823;47.032;8.310;2022-12-07T02:55:15;1.30;99.90
46085;DHT22;31823;47.032;8.310;2022-12-07T03:05:20;1.30;99.90
46085;DHT22;31823;47.032;8.310;2022-12-07T03:08:19;1.30;99.90
46085;DHT22;31823;47.032;8.310;2022-12-07T03:10:56;1.30;99.90
46085;DHT22;31823;47.032;8.310;2022-12-07T03:16:20;1.30;99.90
46085;DHT22;31823;47.032;8.310;2022-12-07T03:18:53;1.30;99.90
46085;DHT22;31823;47.032;8.310;2022-12-07T03:21:27;1.30;99.90
46085;DHT22;31823;47.032;8.310;2022-12-07T03:23:58;1.40;99.90
46085;DHT22;31823;47.032;8.310;2022-12-07T03:26:31;1.30;99.90
46085;DHT22;31823;47.032;8.310;2022-12-07T03:29:02;1.30;99.90
46085;DHT22;31823;47.032;8.310;2022-12-07T03:31:33;1.30;99.90
46085;DHT22;31823;47.032;8.310;2022-12-07T03:34:16;1.30;99.90
46085;DHT22;31823;47.032;8.310;2022-12-07T03:36:47;1.30;99.90
46085;DHT22;31823;47.032;8.310;2022-12-07T03:39:29;1.30;99.90
46085;DHT22;31823;47.032;8.310;2022-12-07T03:42:16;1.30;99.90
46085;DHT22;31823;47.032;8.310;2022-12-07T03:44:42;1.30;99.90
46085;DHT22;31823;47.032;8.310;2022-12-07T03:50:28;1.40;99.90
46085;DHT22;31823;47.032;8.310;2022-12-07T03:52:59;1.40;99.90
46085;DHT22;31823;47.032;8.310;2022-12-07T03:55:32;1.30;99.90
46085;DHT22;31823;47.032;8.310;2022-12-07T03:58:01;1.30;99.90
46085;DHT22;31823;47.032;8.310;2022-12-07T04:00:29;1.40;99.90
46085;DHT22;31823;47.032;8.310;2022-12-07T04:02:55;1.30;99.90
46085;DHT22;31823;47.032;8.310;2022-12-07T04:05:21;1.30;99.90
46085;DHT22;31823;47.032;8.310;2022-12-07T04:07:47;1.40;99.90
46085;DHT22;31823;47.032;8.310;2022-12-07T04:10:13;1.40;99.90
46085;DHT22;31823;47.032;8.310;2022-12-07T04:12:39;1.40;99.90
46085;DHT22;31823;47.032;8.310;2022-12-07T04:15:05;1.40;99.90
46085;DHT22;31823;47.032;8.310;2022-12-07T04:17:30;1.40;99.90
46085;DHT22;31823;47.032;8.310;2022-12-07T04:19:56;1.40;99.90
46085;DHT22;31823;47.032;8.310;2022-12-07T04:22:22;1.50;99.90
46085;DHT22;31823;47.032;8.310;2022-12-07T04:24:47;1.50;99.90
46085;DHT22;31823;47.032;8.310;2022-12-07T04:27:13;1.40;99.90
46085;DHT22;31823;47.032;8.310;2022-12-07T04:29:38;1.40;99.90
46085;DHT22;31823;47.032;8.310;2022-12-07T04:32:04;1.50;99.90
46085;DHT22;31823;47.032;8.310;2022-12-07T04:34:30;1.50;99.90
46085;DHT22;31823;47.032;8.310;2022-12-07T04:36:55;1.50;99.90
46085;DHT22;31823;47.032;8.310;2022-12-07T04:39:29;1.50;99.90
46085;DHT22;31823;47.032;8.310;2022-12-07T04:41:55;1.50;99.90
46085;DHT22;31823;47.032;8.310;2022-12-07T04:44:21;1.50;99.90
46085;DHT22;31823;47.032;8.310;2022-12-07T04:46:48;1.50;99.90
46085;DHT22;31823;47.032;8.310;2022-12-07T04:49:14;1.50;99.90
46085;DHT22;31823;47.032;8.310;2022-12-07T04:51:40;1.50;99.90
46085;DHT22;31823;47.032;8.310;2022-12-07T04:54:06;1.40;99.90
46085;DHT22;31823;47.032;8.310;2022-12-07T04:56:31;1.40;99.90
46085;DHT22;31823;47.032;8.310;2022-12-07T04:58:57;1.40;99.90
46085;DHT22;31823;47.032;8.310;2022-12-07T05:01:23;1.40;99.90
46085;DHT22;31823;47.032;8.310;2022-12-07T05:03:49;1.40;99.90
46085;DHT22;31823;47.032;8.310;2022-12-07T05:06:14;1.50;99.90
46085;DHT22;31823;47.032;8.310;2022-12-07T05:08:40;1.60;99.90
46085;DHT22;31823;47.032;8.310;2022-12-07T05:11:07;1.60;99.90
46085;DHT22;31823;47.032;8.310;2022-12-07T05:13:34;1.70;99.90
46085;DHT22;31823;47.032;8.310;2022-12-07T05:16:00;1.60;99.90
46085;DHT22;31823;47.032;8.310;2022-12-07T05:18:25;1.60;99.90
46085;DHT22;31823;47.032;8.310;2022-12-07T05:20:51;1.50;99.90
46085;DHT22;31823;47.032;8.310;2022-12-07T05:23:17;1.50;99.90
46085;DHT22;31823;47.032;8.310;2022-12-07T05:25:45;1.50;99.90
46085;DHT22;31823;47.032;8.310;2022-12-07T05:28:10;1.60;99.90
46085;DHT22;31823;47.032;8.310;2022-12-07T05:30:36;1.60;99.90
46085;DHT22;31823;47.032;8.310;2022-12-07T05:33:02;1.60;99.90
46085;DHT22;31823;47.032;8.310;2022-12-07T05:35:28;1.60;99.90
46085;DHT22;31823;47.032;8.310;2022-12-07T05:37:55;1.60;99.90
46085;DHT22;31823;47.032;8.310;2022-12-07T05:40:20;1.60;99.90
46085;DHT22;31823;47.032;8.310;2022-12-07T05:42:46;1.50;99.90
46085;DHT22;31823;47.032;8.310;2022-12-07T05:45:12;1.50;99.90
46085;DHT22;31823;47.032;8.310;2022-12-07T05:47:37;1.50;99.90
46085;DHT22;31823;47.032;8.310;2022-12-07T05:50:04;1.50;99.90
46085;DHT22;31823;47.032;8.310;2022-12-07T05:52:30;1.50;99.90
46085;DHT22;31823;47.032;8.310;2022-12-07T05:54:56;1.60;99.90
46085;DHT22;31823;47.032;8.310;2022-12-07T05:57:21;1.60;99.90
46085;DHT22;31823;47.032;8.310;2022-12-07T05:59:47;1.60;99.90
46085;DHT22;31823;47.032;8.310;2022-12-07T06:02:15;1.60;99.90
46085;DHT22;31823;47.032;8.310;2022-12-07T06:04:43;1.60;99.90
46085;DHT22;31823;47.032;8.310;2022-12-07T06:07:10;1.60;99.90
46085;DHT22;31823;47.032;8.310;2022-12-07T06:09:36;1.60;99.90
46085;DHT22;31823;47.032;8.310;2022-12-07T06:12:02;1.60;99.90
46085;DHT22;31823;47.032;8.310;2022-12-07T06:14:46;1.50;99.90
46085;DHT22;31823;47.032;8.310;2022-12-07T06:17:13;1.50;99.90
46085;DHT22;31823;47.032;8.310;2022-12-07T06:19:39;1.60;99.90
46085;DHT22;31823;47.032;8.310;2022-12-07T06:22:05;1.60;99.90
46085;DHT22;31823;47.032;8.310;2022-12-07T06:24:32;1.60;99.90
46085;DHT22;31823;47.032;8.310;2022-12-07T06:26:57;1.60;99.90
46085;DHT22;31823;47.032;8.310;2022-12-07T06:29:23;1.60;99.90
46085;DHT22;31823;47.032;8.310;2022-12-07T06:31:49;1.60;99.90
46085;DHT22;31823;47.032;8.310;2022-12-07T06:34:20;1.60;99.90
46085;DHT22;31823;47.032;8.310;2022-12-07T06:36:46;1.60;99.90
46085;DHT22;31823;47.032;8.310;2022-12-07T06:39:16;1.60;99.90
46085;DHT22;31823;47.032;8.310;2022-12-07T06:41:42;1.60;99.90
46085;DHT22;31823;47.032;8.310;2022-12-07T06:44:07;1.60;99.90
46085;DHT22;31823;47.032;8.310;2022-12-07T06:46:33;1.60;99.90
46085;DHT22;31823;47.032;8.310;2022-12-07T06:49:00;1.60;99.90
46085;DHT22;31823;47.032;8.310;2022-12-07T06:51:26;1.60;99.90
46085;DHT22;31823;47.032;8.310;2022-12-07T06:53:51;1.60;99.90
46085;DHT22;31823;47.032;8.310;2022-12-07T06:56:17;1.60;99.90
46085;DHT22;31823;47.032;8.310;2022-12-07T06:58:42;1.60;99.90
46085;DHT22;31823;47.032;8.310;2022-12-07T07:01:13;1.60;99.90
46085;DHT22;31823;47.032;8.310;2022-12-07T07:03:40;1.60;99.90
46085;DHT22;31823;47.032;8.310;2022-12-07T07:06:06;1.60;99.90
46085;DHT22;31823;47.032;8.310;2022-12-07T07:08:33;1.60;99.90
46085;DHT22;31823;47.032;8.310;2022-12-07T07:10:59;1.70;99.90
46085;DHT22;31823;47.032;8.310;2022-12-07T07:13:25;1.70;99.90
46085;DHT22;31823;47.032;8.310;2022-12-07T07:15:51;1.70;99.90
46085;DHT22;31823;47.032;8.310;2022-12-07T07:18:17;1.70;99.90
46085;DHT22;31823;47.032;8.310;2022-12-07T07:20:42;1.70;99.90
46085;DHT22;31823;47.032;8.310;2022-12-07T07:23:08;1.70;99.90
46085;DHT22;31823;47.032;8.310;2022-12-07T07:25:33;1.70;99.90
46085;DHT22;31823;47.032;8.310;2022-12-07T07:27:59;1.70;99.90
46085;DHT22;31823;47.032;8.310;2022-12-07T07:30:25;1.70;99.90
46085;DHT22;31823;47.032;8.310;2022-12-07T07:32:51;1.70;99.90
46085;DHT22;31823;47.032;8.310;2022-12-07T07:35:21;1.70;99.90
46085;DHT22;31823;47.032;8.310;2022-12-07T07:37:46;1.80;99.90
46085;DHT22;31823;47.032;8.310;2022-12-07T07:40:12;1.80;99.90
46085;DHT22;31823;47.032;8.310;2022-12-07T07:42:37;1.80;99.90
46085;DHT22;31823;47.032;8.310;2022-12-07T07:45:03;1.80;99.90
46085;DHT22;31823;47.032;8.310;2022-12-07T07:47:29;1.80;99.90
46085;DHT22;31823;47.032;8.310;2022-12-07T07:49:55;1.80;99.90
46085;DHT22;31823;47.032;8.310;2022-12-07T07:52:20;1.80;99.90
46085;DHT22;31823;47.032;8.310;2022-12-07T07:54:46;1.80;99.90
46085;DHT22;31823;47.032;8.310;2022-12-07T07:57:12;1.90;99.90
46085;DHT22;31823;47.032;8.310;2022-12-07T07:59:37;1.90;99.90
46085;DHT22;31823;47.032;8.310;2022-12-07T08:02:03;1.90;99.90
46085;DHT22;31823;47.032;8.310;2022-12-07T08:04:28;1.90;99.90
46085;DHT22;31823;47.032;8.310;2022-12-07T08:06:54;2.00;99.90
46085;DHT22;31823;47.032;8.310;2022-12-07T08:09:19;2.00;99.90
46085;DHT22;31823;47.032;8.310;2022-12-07T08:11:45;2.00;99.90
46085;DHT22;31823;47.032;8.310;2022-12-07T08:14:11;2.10;99.90
46085;DHT22;31823;47.032;8.310;2022-12-07T08:16:37;2.00;99.90
46085;DHT22;31823;47.032;8.310;2022-12-07T08:19:23;2.10;99.90
46085;DHT22;31823;47.032;8.310;2022-12-07T08:21:49;2.00;99.90
46085;DHT22;31823;47.032;8.310;2022-12-07T08:24:14;2.00;99.90
46085;DHT22;31823;47.032;8.310;2022-12-07T08:26:40;2.10;99.90
46085;DHT22;31823;47.032;8.310;2022-12-07T08:29:06;2.10;99.90
46085;DHT22;31823;47.032;8.310;2022-12-07T08:31:31;2.10;99.90
46085;DHT22;31823;47.032;8.310;2022-12-07T08:33:57;2.10;99.90
46085;DHT22;31823;47.032;8.310;2022-12-07T08:36:23;2.20;99.90
46085;DHT22;31823;47.032;8.310;2022-12-07T08:38:49;2.20;99.90
46085;DHT22;31823;47.032;8.310;2022-12-07T08:41:15;2.20;99.90
46085;DHT22;31823;47.032;8.310;2022-12-07T08:43:41;2.30;99.90
46085;DHT22;31823;47.032;8.310;2022-12-07T08:48:50;2.40;99.90
46085;DHT22;31823;47.032;8.310;2022-12-07T08:51:16;2.50;99.90
46085;DHT22;31823;47.032;8.310;2022-12-07T08:53:42;2.60;99.90
46085;DHT22;31823;47.032;8.310;2022-12-07T08:56:09;2.60;99.90
46085;DHT22;31823;47.032;8.310;2022-12-07T08:58:36;2.50;99.90
46085;DHT22;31823;47.032;8.310;2022-12-07T09:01:02;2.60;99.90
46085;DHT22;31823;47.032;8.310;2022-12-07T09:03:28;2.60;99.90
46085;DHT22;31823;47.032;8.310;2022-12-07T09:05:54;2.60;99.90
46085;DHT22;31823;47.032;8.310;2022-12-07T09:08:21;2.70;99.90
46085;DHT22;31823;47.032;8.310;2022-12-07T09:10:47;2.80;99.90
46085;DHT22;31823;47.032;8.310;2022-12-07T09:13:13;2.80;99.90
46085;DHT22;31823;47.032;8.310;2022-12-07T09:15:39;2.90;99.90
46085;DHT22;31823;47.032;8.310;2022-12-07T09:18:04;2.90;99.90
46085;DHT22;31823;47.032;8.310;2022-12-07T09:20:30;2.90;99.90
46085;DHT22;31823;47.032;8.310;2022-12-07T09:22:56;2.90;99.90
46085;DHT22;31823;47.032;8.310;2022-12-07T09:25:21;2.90;99.90
46085;DHT22;31823;47.032;8.310;2022-12-07T09:27:47;2.90;99.90
46085;DHT22;31823;47.032;8.310;2022-12-07T09:30:13;2.90;99.90
46085;DHT22;31823;47.032;8.310;2022-12-07T09:32:38;2.90;99.90
46085;DHT22;31823;47.032;8.310;2022-12-07T09:35:04;2.80;99.90
46085;DHT22;31823;47.032;8.310;2022-12-07T09:37:30;2.90;99.90
46085;DHT22;31823;47.032;8.310;2022-12-07T09:40:00;2.90;99.90
46085;DHT22;31823;47.032;8.310;2022-12-07T09:44:58;2.90;99.90
46085;DHT22;31823;47.032;8.310;2022-12-07T09:47:24;2.90;99.90
46085;DHT22;31823;47.032;8.310;2022-12-07T09:49:50;3.00;99.90
46085;DHT22;31823;47.032;8.310;2022-12-07T09:52:22;3.10;99.90
46085;DHT22;31823;47.032;8.310;2022-12-07T09:54:50;3.00;99.90
46085;DHT22;31823;47.032;8.310;2022-12-07T09:57:18;3.00;99.90
46085;DHT22;31823;47.032;8.310;2022-12-07T09:59:45;3.00;99.90
46085;DHT22;31823;47.032;8.310;2022-12-07T10:04:55;3.00;99.90
46085;DHT22;31823;47.032;8.310;2022-12-07T10:07:22;3.00;99.90
46085;DHT22;31823;47.032;8.310;2022-12-07T10:09:48;3.00;99.90
46085;DHT22;31823;47.032;8.310;2022-12-07T10:12:14;3.00;99.90
46085;DHT22;31823;47.032;8.310;2022-12-07T10:15:03;3.00;99.90
46085;DHT22;31823;47.032;8.310;2022-12-07T10:17:36;3.10;99.90
46085;DHT22;31823;47.032;8.310;2022-12-07T10:20:22;3.20;99.90
46085;DHT22;31823;47.032;8.310;2022-12-07T10:23:05;3.20;99.90
46085;DHT22;31823;47.032;8.310;2022-12-07T10:25:39;3.10;99.90
46085;DHT22;31823;47.032;8.310;2022-12-07T10:28:13;3.10;99.90
46085;DHT22;31823;47.032;8.310;2022-12-07T10:30:57;3.10;99.90
46085;DHT22;31823;47.032;8.310;2022-12-07T10:33:37;3.20;99.90
46085;DHT22;31823;47.032;8.310;2022-12-07T10:36:22;3.00;99.90
46085;DHT22;31823;47.032;8.310;2022-12-07T10:41:18;2.90;99.90
46085;DHT22;31823;47.032;8.310;2022-12-07T10:43:53;2.90;99.90
46085;DHT22;31823;47.032;8.310;2022-12-07T10:47:39;2.90;99.90
46085;DHT22;31823;47.032;8.310;2022-12-07T10:52:50;2.90;99.90
46085;DHT22;31823;47.032;8.310;2022-12-07T10:55:32;2.90;99.90
46085;DHT22;31823;47.032;8.310;2022-12-07T11:00:42;2.90;99.90
46085;DHT22;31823;47.032;8.310;2022-12-07T11:03:30;2.80;99.90
46085;DHT22;31823;47.032;8.310;2022-12-07T11:17:19;2.90;99.90
46085;DHT22;31823;47.032;8.310;2022-12-07T11:20:02;2.90;99.90
46085;DHT22;31823;47.032;8.310;2022-12-07T11:25:23;2.90;99.90
46085;DHT22;31823;47.032;8.310;2022-12-07T11:38:55;2.80;99.90
46085;DHT22;31823;47.032;8.310;2022-12-07T11:41:35;2.90;99.90
46085;DHT22;31823;47.032;8.310;2022-12-07T11:46:49;3.00;99.90
46085;DHT22;31823;47.032;8.310;2022-12-07T11:52:18;3.00;99.90
46085;DHT22;31823;47.032;8.310;2022-12-07T11:54:46;2.90;99.90
46085;DHT22;31823;47.032;8.310;2022-12-07T11:57:24;3.00;99.90
46085;DHT22;31823;47.032;8.310;2022-12-07T11:59:56;3.00;99.90
46085;DHT22;31823;47.032;8.310;2022-12-07T12:02:41;3.00;99.90
46085;DHT22;31823;47.032;8.310;2022-12-07T12:05:22;3.00;99.90
46085;DHT22;31823;47.032;8.310;2022-12-07T12:07:56;3.00;99.90
46085;DHT22;31823;47.032;8.310;2022-12-07T12:13:28;3.00;99.90
46085;DHT22;31823;47.032;8.310;2022-12-07T12:16:25;3.00;99.90
46085;DHT22;31823;47.032;8.310;2022-12-07T12:21:46;3.00;99.90
46085;DHT22;31823;47.032;8.310;2022-12-07T12:24:18;3.00;99.90
46085;DHT22;31823;47.032;8.310;2022-12-07T12:26:53;3.00;99.90
46085;DHT22;31823;47.032;8.310;2022-12-07T12:29:27;3.00;99.90
46085;DHT22;31823;47.032;8.310;2022-12-07T12:32:16;3.00;99.90
46085;DHT22;31823;47.032;8.310;2022-12-07T12:42:55;3.00;99.90
46085;DHT22;31823;47.032;8.310;2022-12-07T12:45:29;3.00;99.90
46085;DHT22;31823;47.032;8.310;2022-12-07T12:47:57;3.00;99.90
46085;DHT22;31823;47.032;8.310;2022-12-07T12:53:25;3.00;99.90
46085;DHT22;31823;47.032;8.310;2022-12-07T12:56:01;3.00;99.90
46085;DHT22;31823;47.032;8.310;2022-12-07T12:58:37;3.00;99.90
46085;DHT22;31823;47.032;8.310;2022-12-07T13:01:32;3.00;99.90
46085;DHT22;31823;47.032;8.310;2022-12-07T13:03:59;3.00;99.90
46085;DHT22;31823;47.032;8.310;2022-12-07T13:08:51;2.90;99.90
46085;DHT22;31823;47.032;8.310;2022-12-07T13:11:39;2.90;99.90
46085;DHT22;31823;47.032;8.310;2022-12-07T13:14:37;2.90;99.90
46085;DHT22;31823;47.032;8.310;2022-12-07T13:20:05;3.00;99.90
46085;DHT22;31823;47.032;8.310;2022-12-07T13:25:30;2.90;99.90
46085;DHT22;31823;47.032;8.310;2022-12-07T13:28:17;3.10;99.90
46085;DHT22;31823;47.032;8.310;2022-12-07T13:33:43;3.00;99.90
46085;DHT22;31823;47.032;8.310;2022-12-07T13:39:00;2.90;99.90
46085;DHT22;31823;47.032;8.310;2022-12-07T13:41:35;3.00;99.90
46085;DHT22;31823;47.032;8.310;2022-12-07T13:44:05;2.90;99.90
46085;DHT22;31823;47.032;8.310;2022-12-07T13:47:12;2.90;99.90
46085;DHT22;31823;47.032;8.310;2022-12-07T13:49:47;2.90;99.90
46085;DHT22;31823;47.032;8.310;2022-12-07T13:54:59;2.80;99.90
46085;DHT22;31823;47.032;8.310;2022-12-07T13:57:28;2.80;99.90
46085;DHT22;31823;47.032;8.310;2022-12-07T13:59:54;2.90;99.90
46085;DHT22;31823;47.032;8.310;2022-12-07T14:02:28;2.90;99.90
46085;DHT22;31823;47.032;8.310;2022-12-07T14:07:33;3.00;99.90
46085;DHT22;31823;47.032;8.310;2022-12-07T14:10:01;2.90;99.90
46085;DHT22;31823;47.032;8.310;2022-12-07T14:12:29;2.90;99.90
46085;DHT22;31823;47.032;8.310;2022-12-07T14:14:56;2.90;99.90
46085;DHT22;31823;47.032;8.310;2022-12-07T14:17:25;2.90;99.90
46085;DHT22;31823;47.032;8.310;2022-12-07T14:20:01;2.80;99.90
46085;DHT22;31823;47.032;8.310;2022-12-07T14:22:33;2.90;99.90
46085;DHT22;31823;47.032;8.310;2022-12-07T14:27:31;2.80;99.90
46085;DHT22;31823;47.032;8.310;2022-12-07T14:30:03;2.80;99.90
46085;DHT22;31823;47.032;8.310;2022-12-07T14:32:30;2.80;99.90
46085;DHT22;31823;47.032;8.310;2022-12-07T14:35:11;2.70;99.90
46085;DHT22;31823;47.032;8.310;2022-12-07T14:37:38;2.80;99.90
46085;DHT22;31823;47.032;8.310;2022-12-07T14:40:04;2.80;99.90
46085;DHT22;31823;47.032;8.310;2022-12-07T14:42:30;2.80;99.90
46085;DHT22;31823;47.032;8.310;2022-12-07T14:44:57;2.80;99.90
46085;DHT22;31823;47.032;8.310;2022-12-07T14:47:24;2.80;99.90
46085;DHT22;31823;47.032;8.310;2022-12-07T14:49:50;2.70;99.90
46085;DHT22;31823;47.032;8.310;2022-12-07T14:52:28;2.70;99.90
46085;DHT22;31823;47.032;8.310;2022-12-07T14:54:53;2.70;99.90
46085;DHT22;31823;47.032;8.310;2022-12-07T14:57:19;2.70;99.90
46085;DHT22;31823;47.032;8.310;2022-12-07T14:59:45;2.70;99.90
46085;DHT22;31823;47.032;8.310;2022-12-07T15:02:12;2.70;99.90
46085;DHT22;31823;47.032;8.310;2022-12-07T15:04:38;2.70;99.90
46085;DHT22;31823;47.032;8.310;2022-12-07T15:07:06;2.60;99.90
46085;DHT22;31823;47.032;8.310;2022-12-07T15:09:32;2.70;99.90
46085;DHT22;31823;47.032;8.310;2022-12-07T15:11:58;2.70;99.90
46085;DHT22;31823;47.032;8.310;2022-12-07T15:14:23;2.70;99.90
46085;DHT22;31823;47.032;8.310;2022-12-07T15:16:49;2.70;99.90
46085;DHT22;31823;47.032;8.310;2022-12-07T15:19:20;2.70;99.90
46085;DHT22;31823;47.032;8.310;2022-12-07T15:21:49;2.70;99.90
46085;DHT22;31823;47.032;8.310;2022-12-07T15:24:15;2.60;99.90
46085;DHT22;31823;47.032;8.310;2022-12-07T15:26:41;2.70;99.90
46085;DHT22;31823;47.032;8.310;2022-12-07T15:29:07;2.70;99.90
46085;DHT22;31823;47.032;8.310;2022-12-07T15:31:33;2.60;99.90
46085;DHT22;31823;47.032;8.310;2022-12-07T15:33:59;2.60;99.90
46085;DHT22;31823;47.032;8.310;2022-12-07T15:36:29;2.60;99.90
46085;DHT22;31823;47.032;8.310;2022-12-07T15:38:56;2.50;99.90
46085;DHT22;31823;47.032;8.310;2022-12-07T15:41:21;2.50;99.90
46085;DHT22;31823;47.032;8.310;2022-12-07T15:43:47;2.60;99.90
46085;DHT22;31823;47.032;8.310;2022-12-07T15:46:34;2.60;99.90
46085;DHT22;31823;47.032;8.310;2022-12-07T15:49:03;2.60;99.90
46085;DHT22;31823;47.032;8.310;2022-12-07T15:51:29;2.50;99.90
46085;DHT22;31823;47.032;8.310;2022-12-07T15:53:55;2.50;99.90
46085;DHT22;31823;47.032;8.310;2022-12-07T15:56:22;2.50;99.90
46085;DHT22;31823;47.032;8.310;2022-12-07T15:58:47;2.60;99.90
46085;DHT22;31823;47.032;8.310;2022-12-07T16:01:15;2.60;99.90
46085;DHT22;31823;47.032;8.310;2022-12-07T16:03:42;2.60;99.90
46085;DHT22;31823;47.032;8.310;2022-12-07T16:06:07;2.60;99.90
46085;DHT22;31823;47.032;8.310;2022-12-07T16:08:33;2.60;99.90
46085;DHT22;31823;47.032;8.310;2022-12-07T16:10:59;2.60;99.90
46085;DHT22;31823;47.032;8.310;2022-12-07T16:13:25;2.50;99.90
46085;DHT22;31823;47.032;8.310;2022-12-07T16:15:50;2.60;99.90
46085;DHT22;31823;47.032;8.310;2022-12-07T16:18:16;2.60;99.90
46085;DHT22;31823;47.032;8.310;2022-12-07T16:20:41;2.60;99.90
46085;DHT22;31823;47.032;8.310;2022-12-07T16:23:07;2.60;99.90
46085;DHT22;31823;47.032;8.310;2022-12-07T16:25:33;2.60;99.90
46085;DHT22;31823;47.032;8.310;2022-12-07T16:27:59;2.60;99.90
46085;DHT22;31823;47.032;8.310;2022-12-07T16:30:24;2.60;99.90
46085;DHT22;31823;47.032;8.310;2022-12-07T16:32:51;2.50;99.90
46085;DHT22;31823;47.032;8.310;2022-12-07T16:35:17;2.60;99.90
46085;DHT22;31823;47.032;8.310;2022-12-07T16:37:43;2.60;99.90
46085;DHT22;31823;47.032;8.310;2022-12-07T16:40:09;2.50;99.90
46085;DHT22;31823;47.032;8.310;2022-12-07T16:42:35;2.60;99.90
46085;DHT22;31823;47.032;8.310;2022-12-07T16:45:02;2.50;99.90
46085;DHT22;31823;47.032;8.310;2022-12-07T16:47:28;2.50;99.90
46085;DHT22;31823;47.032;8.310;2022-12-07T16:49:54;2.60;99.90
46085;DHT22;31823;47.032;8.310;2022-12-07T16:52:20;2.50;99.90
46085;DHT22;31823;47.032;8.310;2022-12-07T16:54:46;2.50;99.90
46085;DHT22;31823;47.032;8.310;2022-12-07T16:57:12;2.50;99.90
46085;DHT22;31823;47.032;8.310;2022-12-07T16:59:37;2.40;99.90
46085;DHT22;31823;47.032;8.310;2022-12-07T17:02:03;2.50;99.90
46085;DHT22;31823;47.032;8.310;2022-12-07T17:04:29;2.40;99.90
46085;DHT22;31823;47.032;8.310;2022-12-07T17:06:54;2.40;99.90
46085;DHT22;31823;47.032;8.310;2022-12-07T17:09:20;2.50;99.90
46085;DHT22;31823;47.032;8.310;2022-12-07T17:11:45;2.50;99.90
46085;DHT22;31823;47.032;8.310;2022-12-07T17:14:11;2.50;99.90
46085;DHT22;31823;47.032;8.310;2022-12-07T17:16:55;2.50;99.90
46085;DHT22;31823;47.032;8.310;2022-12-07T17:19:21;2.50;99.90
46085;DHT22;31823;47.032;8.310;2022-12-07T17:21:46;2.40;99.90
46085;DHT22;31823;47.032;8.310;2022-12-07T17:24:15;2.40;99.90
46085;DHT22;31823;47.032;8.310;2022-12-07T17:26:43;2.40;99.90
46085;DHT22;31823;47.032;8.310;2022-12-07T17:29:12;2.30;99.90
46085;DHT22;31823;47.032;8.310;2022-12-07T17:31:39;2.30;99.90
46085;DHT22;31823;47.032;8.310;2022-12-07T17:34:10;2.30;99.90
46085;DHT22;31823;47.032;8.310;2022-12-07T17:36:36;2.30;99.90
46085;DHT22;31823;47.032;8.310;2022-12-07T17:39:07;2.30;99.90
46085;DHT22;31823;47.032;8.310;2022-12-07T17:41:32;2.30;99.90
46085;DHT22;31823;47.032;8.310;2022-12-07T17:44:17;2.30;99.90
46085;DHT22;31823;47.032;8.310;2022-12-07T17:46:45;2.30;99.90
46085;DHT22;31823;47.032;8.310;2022-12-07T17:49:11;2.30;99.90